ESMT/HAD METAR and TAF weather

Enter ICAO airport designator
Station Type Date Time Source
ESMT METAR 2022/07/01 01:50 UTC NOAA

ESMT 010150Z AUTO 00000KT 9999 NCD 16/13 Q1013


Station Type Date Time Source
ESMT Decoded METAR 2022/07/01 01:50 UTC NOAA

Halmstad Swedish Air Force Base , Sweden (ESMT) 56-41N 012-50E
Jun 30, 2022 - 09:50 PM EDT / 2022.07.01 0150 UTC
Wind: Calm:0
Visibility: greater than 7 mile(s):0
Temperature: 60 F (16 C)
Dew Point: 55 F (13 C)
Relative Humidity: 82%
Pressure (altimeter): 29.91 in. Hg (1013 hPa)
ob: ESMT 010150Z AUTO 00000KT 9999 NCD 16/13 Q1013
cycle: 2

Station Type Date Time Source
ESMT TAF 2020/11/01 07:40 UTC NOAA

TAF
AMD ESMT 010733Z 0107/0121 16010KT 9999 BKN012
TEMPO 0107/0109 2800 RADZ BR BKN003
BECMG 0109/0112 SCT012

Example: see airport list